Tropical Cyclones
[Index]
Main Index Home Page Stock Weather Photos Extreme Storms Discussion Storm News and Storm Chasing Reports Tropical Cyclones / Hurricanes / Typhoons Weather Data and Links Wild Fires / Bushfires Weather Observation Techniques Weather Picture Catalogue Tornado Pictures and Reports Stock Video Footage and DVDs for sale
Season 2001-2002 Tropical Cyclone BESSI-BAKO Track Map
Season 2001-2002 Summaries (Operational Data): [AU] [SIO] [SPAC] [SH]
<<- Previous TC | 2001-2002 Season | Next TC ->>

click for intensity scale information  Lat/long Grid: Show Hide

 Date Labels: Show Hide

Operational Tropical Cyclone Data : JTWC Advisories

Name: BESSI-BAKO
Number: 0205

25 Nov 2001 06:00 UTC to 06 Dec 2001 12:00 UTC

    date/time    lat    long     hPa   cat  kts
2001-11-25 06    6.5    96.4                             
2001-11-25 12    6.8    96.1                 22          
2001-11-25 18    7.0    95.8                 22          
2001-11-26 00    7.3    95.5                 22          
2001-11-26 06    7.5    95.3                 22          
2001-11-26 12    7.9    95.0                 22          
2001-11-26 17    8.3    94.1    1000         25          
2001-11-26 22    8.5    93.9    1000         25          
2001-11-27 03    8.5    94.0     998         30          
2001-11-27 06    8.2    93.5     995    1    35          
2001-11-27 10    8.1    93.4     995    1    35          
2001-11-27 16    8.4    92.8     990    1    45          
2001-11-27 22    8.5    92.5     985    2    50          
2001-11-28 04    9.3    92.0     975    2    60          
2001-11-28 10   10.0    91.0     975    2    60          
2001-11-28 16   10.7    91.3     982    2    55          
2001-11-28 22   11.5    91.7     985    2    50          
2001-11-29 03   11.5    92.5     990    1    40          
2001-11-29 10   12.9    92.2     990    1    40          
2001-11-29 16   13.8    92.0     992    1    40          
2001-11-29 22   14.3    90.5     992    1    40          
2001-11-30 04   14.6    89.1     992    1    40          
2001-11-30 06   14.5    88.8     993    1    40          
2001-11-30 12   14.5    87.7     990    1    40          
2001-11-30 18   14.5    86.5     988    1    40          
2001-12-01 00   14.7    86.3     988    1    40          
2001-12-01 06   15.0    85.7     984    2    50          
2001-12-01 12   15.1    85.4     976    2    55          
2001-12-01 18   15.3    85.4     972    2    60          
2001-12-02 00   15.6    85.1     972    2    60          
2001-12-02 06   16.0    85.1     972    2    60          
2001-12-02 12   16.6    85.4     971    2    60          
2001-12-02 18   17.0    85.8     966    3    65          
2001-12-03 00   17.2    85.9     966    3    65          
2001-12-03 06   17.4    85.8     970    3    65          
2001-12-03 12   17.6    86.1     972    2    60          
2001-12-03 18   18.0    86.4     976    2    60          
2001-12-04 00   18.4    86.2     978    2    55          
2001-12-04 06   18.0    86.4     990    1    40          
2001-12-04 12   18.1    86.4     992    1    40          
2001-12-04 18   18.1    86.2     995    1    35          
2001-12-05 00   17.9    86.4     998         30          
2001-12-05 06   18.5    87.1     999         30          
2001-12-05 12   19.2    87.0    1000    1    35          
2001-12-05 18   19.3    86.6    1000    1    35          
2001-12-06 00   19.9    86.8    1000    1    35          
2001-12-06 06   21.1    86.9    1000    1    35          
2001-12-06 12   21.4    86.7    1002    1    35          
Winds are 10-min average.

Tropical cyclone tracks developed by Michael Bath using operational warnings and advisories and Google Maps.


[Australian Severe Weather index] [Copyright Notice] [Email Contacts] [Search This Site] [Privacy Policy]
Document: tropical_cyclone_bessi-bako.htm Updated: 2 May 2017